sensor_id;sensor_type;location;lat;lon;timestamp;pressure;altitude;pressure_sealevel;temperature;humidity
77871;BME280;67067;46.850;7.578;2023-02-15T00:00:35;96571.94;;;-1.98;52.97
77871;BME280;67067;46.850;7.578;2023-02-15T00:01:36;96571.94;;;-1.98;52.91
77871;BME280;67067;46.850;7.578;2023-02-15T00:02:38;96566.91;;;-1.99;52.89
77871;BME280;67067;46.850;7.578;2023-02-15T00:03:38;96568.66;;;-2.00;53.01
77871;BME280;67067;46.850;7.578;2023-02-15T00:04:39;96562.69;;;-2.00;53.12
77871;BME280;67067;46.850;7.578;2023-02-15T00:05:48;96570.31;;;-1.99;53.19
77871;BME280;67067;46.850;7.578;2023-02-15T00:06:51;96567.59;;;-1.97;53.29
77871;BME280;67067;46.850;7.578;2023-02-15T00:07:51;96567.72;;;-1.99;53.17
77871;BME280;67067;46.850;7.578;2023-02-15T00:08:56;96568.38;;;-1.96;53.26
77871;BME280;67067;46.850;7.578;2023-02-15T00:09:57;96566.75;;;-1.98;53.22
77871;BME280;67067;46.850;7.578;2023-02-15T00:12:09;96564.84;;;-1.95;53.21
77871;BME280;67067;46.850;7.578;2023-02-15T00:13:10;96568.38;;;-1.96;53.23
77871;BME280;67067;46.850;7.578;2023-02-15T00:15:15;96562.41;;;-1.97;53.33
77871;BME280;67067;46.850;7.578;2023-02-15T00:16:15;96561.44;;;-1.96;53.38
77871;BME280;67067;46.850;7.578;2023-02-15T00:17:16;96561.44;;;-1.96;53.32
77871;BME280;67067;46.850;7.578;2023-02-15T00:18:19;96556.91;;;-1.94;53.22
77871;BME280;67067;46.850;7.578;2023-02-15T00:19:20;96562.91;;;-1.93;53.26
77871;BME280;67067;46.850;7.578;2023-02-15T00:20:21;96560.19;;;-2.02;53.30
77871;BME280;67067;46.850;7.578;2023-02-15T00:21:22;96561.44;;;-1.96;53.30
77871;BME280;67067;46.850;7.578;2023-02-15T00:22:22;96563.75;;;-1.93;53.29
77871;BME280;67067;46.850;7.578;2023-02-15T00:23:24;96560.03;;;-1.90;53.31
77871;BME280;67067;46.850;7.578;2023-02-15T00:24:26;96560.03;;;-1.90;53.30
77871;BME280;67067;46.850;7.578;2023-02-15T00:25:29;96561.56;;;-1.88;53.20
77871;BME280;67067;46.850;7.578;2023-02-15T00:26:29;96559.09;;;-1.89;53.47
77871;BME280;67067;46.850;7.578;2023-02-15T00:27:30;96558.13;;;-1.88;53.10
77871;BME280;67067;46.850;7.578;2023-02-15T00:28:36;96553.63;;;-1.86;53.20
77871;BME280;67067;46.850;7.578;2023-02-15T00:29:39;96558.84;;;-1.86;52.93
77871;BME280;67067;46.850;7.578;2023-02-15T00:30:40;96554.84;;;-1.90;53.15
77871;BME280;67067;46.850;7.578;2023-02-15T00:31:41;96564.28;;;-1.89;53.21
77871;BME280;67067;46.850;7.578;2023-02-15T00:32:44;96557.44;;;-1.90;53.20
77871;BME280;67067;46.850;7.578;2023-02-15T00:33:45;96552.28;;;-2.00;53.17
77871;BME280;67067;46.850;7.578;2023-02-15T00:34:48;96549.81;;;-2.02;53.24
77871;BME280;67067;46.850;7.578;2023-02-15T00:35:56;96558.00;;;-1.96;53.00
77871;BME280;67067;46.850;7.578;2023-02-15T00:36:56;96554.44;;;-1.95;53.18
77871;BME280;67067;46.850;7.578;2023-02-15T00:37:57;96563.75;;;-1.93;53.25
77871;BME280;67067;46.850;7.578;2023-02-15T00:38:57;96557.59;;;-1.92;53.31
77871;BME280;67067;46.850;7.578;2023-02-15T00:39:58;96555.97;;;-1.93;53.24
77871;BME280;67067;46.850;7.578;2023-02-15T00:41:03;96565.22;;;-1.90;53.31
77871;BME280;67067;46.850;7.578;2023-02-15T00:42:04;96555.00;;;-1.92;53.35
77871;BME280;67067;46.850;7.578;2023-02-15T00:43:06;96560.31;;;-1.93;53.84
77871;BME280;67067;46.850;7.578;2023-02-15T00:44:07;96557.19;;;-1.97;53.95
77871;BME280;67067;46.850;7.578;2023-02-15T00:45:08;96559.13;;;-1.99;54.21
77871;BME280;67067;46.850;7.578;2023-02-15T00:46:11;96556.38;;;-1.98;54.35
77871;BME280;67067;46.850;7.578;2023-02-15T00:47:13;96555.28;;;-1.95;54.38
77871;BME280;67067;46.850;7.578;2023-02-15T00:48:13;96557.72;;;-1.93;54.04
77871;BME280;67067;46.850;7.578;2023-02-15T00:49:16;96552.53;;;-1.93;54.02
77871;BME280;67067;46.850;7.578;2023-02-15T00:50:17;96555.00;;;-1.92;54.00
77871;BME280;67067;46.850;7.578;2023-02-15T00:51:20;96557.31;;;-1.89;53.89
77871;BME280;67067;46.850;7.578;2023-02-15T00:52:21;96552.81;;;-1.87;53.58
77871;BME280;67067;46.850;7.578;2023-02-15T00:53:22;96556.34;;;-1.88;53.73
77871;BME280;67067;46.850;7.578;2023-02-15T00:54:23;96558.84;;;-1.86;53.61
77871;BME280;67067;46.850;7.578;2023-02-15T00:55:24;96562.09;;;-1.84;53.67
77871;BME280;67067;46.850;7.578;2023-02-15T00:56:26;96555.00;;;-1.82;53.69
77871;BME280;67067;46.850;7.578;2023-02-15T00:57:31;96557.59;;;-1.82;53.52
77871;BME280;67067;46.850;7.578;2023-02-15T00:58:32;96559.34;;;-1.82;53.57
77871;BME280;67067;46.850;7.578;2023-02-15T00:59:32;96555.28;;;-1.85;53.60
77871;BME280;67067;46.850;7.578;2023-02-15T01:00:33;96556.09;;;-1.85;53.63
77871;BME280;67067;46.850;7.578;2023-02-15T01:01:34;96557.72;;;-1.84;53.76
77871;BME280;67067;46.850;7.578;2023-02-15T01:02:37;96557.88;;;-1.85;53.75
77871;BME280;67067;46.850;7.578;2023-02-15T01:03:37;96560.19;;;-1.82;53.78
77871;BME280;67067;46.850;7.578;2023-02-15T01:04:38;96551.56;;;-1.82;53.62
77871;BME280;67067;46.850;7.578;2023-02-15T01:05:38;96558.28;;;-1.80;53.38
77871;BME280;67067;46.850;7.578;2023-02-15T01:06:41;96561.00;;;-1.81;53.30
77871;BME280;67067;46.850;7.578;2023-02-15T01:07:43;96557.72;;;-1.84;53.28
77871;BME280;67067;46.850;7.578;2023-02-15T01:08:45;96558.97;;;-1.88;53.08
77871;BME280;67067;46.850;7.578;2023-02-15T01:09:46;96555.13;;;-1.93;53.00
77871;BME280;67067;46.850;7.578;2023-02-15T01:10:46;96552.81;;;-1.96;52.97
77871;BME280;67067;46.850;7.578;2023-02-15T01:11:47;96550.66;;;-2.01;53.03
77871;BME280;67067;46.850;7.578;2023-02-15T01:12:48;96552.41;;;-2.02;53.05
77871;BME280;67067;46.850;7.578;2023-02-15T01:13:50;96551.47;;;-2.01;53.25
77871;BME280;67067;46.850;7.578;2023-02-15T01:14:51;96553.38;;;-2.03;53.29
77871;BME280;67067;46.850;7.578;2023-02-15T01:15:53;96551.63;;;-2.12;53.40
77871;BME280;67067;46.850;7.578;2023-02-15T01:16:54;96547.78;;;-2.08;53.20
77871;BME280;67067;46.850;7.578;2023-02-15T01:17:55;96555.56;;;-2.08;53.12
77871;BME280;67067;46.850;7.578;2023-02-15T01:18:56;96558.31;;;-2.09;53.05
77871;BME280;67067;46.850;7.578;2023-02-15T01:19:56;96562.69;;;-2.10;53.11
77871;BME280;67067;46.850;7.578;2023-02-15T01:20:57;96560.34;;;-2.13;53.15
77871;BME280;67067;46.850;7.578;2023-02-15T01:21:57;96560.50;;;-2.15;53.10
77871;BME280;67067;46.850;7.578;2023-02-15T01:22:58;96562.28;;;-2.15;52.98
77871;BME280;67067;46.850;7.578;2023-02-15T01:23:58;96556.41;;;-2.17;53.01
77871;BME280;67067;46.850;7.578;2023-02-15T01:24:59;96565.41;;;-2.21;53.12
77871;BME280;67067;46.850;7.578;2023-02-15T01:26:03;96555.59;;;-2.28;52.98
77871;BME280;67067;46.850;7.578;2023-02-15T01:27:06;96555.03;;;-2.31;53.09
77871;BME280;67067;46.850;7.578;2023-02-15T01:28:07;96558.06;;;-2.36;53.27
77871;BME280;67067;46.850;7.578;2023-02-15T01:29:08;96555.88;;;-2.40;53.24
77871;BME280;67067;46.850;7.578;2023-02-15T01:30:09;96564.75;;;-2.43;53.19
77871;BME280;67067;46.850;7.578;2023-02-15T01:31:16;96562.16;;;-2.43;53.16
77871;BME280;67067;46.850;7.578;2023-02-15T01:32:18;96556.28;;;-2.45;53.06
77871;BME280;67067;46.850;7.578;2023-02-15T01:33:21;96557.25;;;-2.46;53.01
77871;BME280;67067;46.850;7.578;2023-02-15T01:34:22;96553.81;;;-2.47;53.12
77871;BME280;67067;46.850;7.578;2023-02-15T01:35:23;96550.41;;;-2.47;53.25
77871;BME280;67067;46.850;7.578;2023-02-15T01:36:27;96556.56;;;-2.48;53.36
77871;BME280;67067;46.850;7.578;2023-02-15T01:37:30;96554.66;;;-2.46;53.34
77871;BME280;67067;46.850;7.578;2023-02-15T01:38:32;96548.63;;;-2.47;53.29
77871;BME280;67067;46.850;7.578;2023-02-15T01:39:35;96547.69;;;-2.46;53.23
77871;BME280;67067;46.850;7.578;2023-02-15T01:40:36;96547.00;;;-2.48;53.15
77871;BME280;67067;46.850;7.578;2023-02-15T01:41:36;96547.16;;;-2.49;53.07
77871;BME280;67067;46.850;7.578;2023-02-15T01:42:37;96546.31;;;-2.50;53.20
77871;BME280;67067;46.850;7.578;2023-02-15T01:44:00;96544.94;;;-2.54;53.15
77871;BME280;67067;46.850;7.578;2023-02-15T01:45:18;96551.47;;;-2.60;53.25
77871;BME280;67067;46.850;7.578;2023-02-15T01:46:24;96544.38;;;-2.58;53.40
77871;BME280;67067;46.850;7.578;2023-02-15T01:47:39;96546.97;;;-2.58;53.32
77871;BME280;67067;46.850;7.578;2023-02-15T01:48:50;96546.28;;;-2.60;53.23
77871;BME280;67067;46.850;7.578;2023-02-15T01:50:07;96549.84;;;-2.61;53.36
77871;BME280;67067;46.850;7.578;2023-02-15T01:51:12;96554.34;;;-2.63;53.44
77871;BME280;67067;46.850;7.578;2023-02-15T01:52:17;96553.53;;;-2.63;53.35
77871;BME280;67067;46.850;7.578;2023-02-15T01:53:27;96549.31;;;-2.64;53.32
77871;BME280;67067;46.850;7.578;2023-02-15T01:54:31;96557.63;;;-2.71;53.36
77871;BME280;67067;46.850;7.578;2023-02-15T01:55:36;96545.22;;;-2.67;53.46
77871;BME280;67067;46.850;7.578;2023-02-15T01:56:39;96550.28;;;-2.65;53.46
77871;BME280;67067;46.850;7.578;2023-02-15T01:57:41;96562.41;;;-2.66;53.61
77871;BME280;67067;46.850;7.578;2023-02-15T01:58:42;96553.53;;;-2.73;53.56
77871;BME280;67067;46.850;7.578;2023-02-15T01:59:47;96555.56;;;-2.67;53.58
77871;BME280;67067;46.850;7.578;2023-02-15T02:00:57;96554.63;;;-2.66;53.58
77871;BME280;67067;46.850;7.578;2023-02-15T02:02:05;96553.66;;;-2.65;53.60
77871;BME280;67067;46.850;7.578;2023-02-15T02:03:07;96545.88;;;-2.65;53.52
77871;BME280;67067;46.850;7.578;2023-02-15T02:05:20;96550.38;;;-2.67;53.55
77871;BME280;67067;46.850;7.578;2023-02-15T02:06:23;96540.84;;;-2.66;53.37
77871;BME280;67067;46.850;7.578;2023-02-15T02:07:27;96552.88;;;-2.65;53.39
77871;BME280;67067;46.850;7.578;2023-02-15T02:08:29;96552.03;;;-2.66;53.58
77871;BME280;67067;46.850;7.578;2023-02-15T02:09:30;96552.88;;;-2.65;53.49
77871;BME280;67067;46.850;7.578;2023-02-15T02:10:35;96546.84;;;-2.66;53.39
77871;BME280;67067;46.850;7.578;2023-02-15T02:11:38;96547.69;;;-2.65;53.45
77871;BME280;67067;46.850;7.578;2023-02-15T02:12:41;96548.75;;;-2.68;53.48
77871;BME280;67067;46.850;7.578;2023-02-15T02:13:43;96544.41;;;-2.67;53.41
77871;BME280;67067;46.850;7.578;2023-02-15T02:14:45;96541.66;;;-2.66;53.46
77871;BME280;67067;46.850;7.578;2023-02-15T02:15:58;96540.28;;;-2.70;53.43
77871;BME280;67067;46.850;7.578;2023-02-15T02:19:46;96539.59;;;-2.72;53.60
77871;BME280;67067;46.850;7.578;2023-02-15T02:21:10;96534.44;;;-2.72;53.61
77871;BME280;67067;46.850;7.578;2023-02-15T02:25:26;96538.50;;;-2.79;53.56
77871;BME280;67067;46.850;7.578;2023-02-15T02:26:38;96539.19;;;-2.77;53.64
77871;BME280;67067;46.850;7.578;2023-02-15T02:29:01;96534.84;;;-2.77;53.68
77871;BME280;67067;46.850;7.578;2023-02-15T02:32:06;96523.22;;;-2.82;53.68
77871;BME280;67067;46.850;7.578;2023-02-15T02:34:32;96523.91;;;-2.80;53.77
77871;BME280;67067;46.850;7.578;2023-02-15T02:36:49;96527.34;;;-2.80;54.23
77871;BME280;67067;46.850;7.578;2023-02-15T02:39:12;96522.28;;;-2.72;54.03
77871;BME280;67067;46.850;7.578;2023-02-15T02:40:58;96518.88;;;-2.72;53.88
77871;BME280;67067;46.850;7.578;2023-02-15T02:43:21;96519.28;;;-2.77;53.61
77871;BME280;67067;46.850;7.578;2023-02-15T02:44:44;96521.47;;;-2.82;53.68
77871;BME280;67067;46.850;7.578;2023-02-15T02:45:59;96528.97;;;-2.79;53.58
77871;BME280;67067;46.850;7.578;2023-02-15T02:48:15;96517.09;;;-2.81;53.59
77871;BME280;67067;46.850;7.578;2023-02-15T02:49:16;96517.94;;;-2.81;53.61
77871;BME280;67067;46.850;7.578;2023-02-15T02:50:25;96523.13;;;-2.81;53.59
77871;BME280;67067;46.850;7.578;2023-02-15T02:51:28;96523.91;;;-2.80;53.43
77871;BME280;67067;46.850;7.578;2023-02-15T02:52:34;96520.63;;;-2.82;53.60
77871;BME280;67067;46.850;7.578;2023-02-15T02:53:37;96520.53;;;-2.81;53.66
77871;BME280;67067;46.850;7.578;2023-02-15T02:54:38;96525.03;;;-2.83;53.60
77871;BME280;67067;46.850;7.578;2023-02-15T02:55:43;96518.88;;;-2.82;53.47
77871;BME280;67067;46.850;7.578;2023-02-15T02:56:50;96514.91;;;-2.86;53.45
77871;BME280;67067;46.850;7.578;2023-02-15T02:58:05;96521.88;;;-2.87;53.65
77871;BME280;67067;46.850;7.578;2023-02-15T02:59:16;96520.50;;;-2.91;53.44
77871;BME280;67067;46.850;7.578;2023-02-15T03:00:18;96523.09;;;-2.91;53.68
77871;BME280;67067;46.850;7.578;2023-02-15T03:01:33;96519.53;;;-2.90;53.65
77871;BME280;67067;46.850;7.578;2023-02-15T03:02:40;96525.69;;;-2.91;53.67
77871;BME280;67067;46.850;7.578;2023-02-15T03:03:52;96526.38;;;-2.89;53.79
77871;BME280;67067;46.850;7.578;2023-02-15T03:04:58;96520.91;;;-2.86;53.76
77871;BME280;67067;46.850;7.578;2023-02-15T03:06:09;96518.19;;;-2.84;53.61
77871;BME280;67067;46.850;7.578;2023-02-15T03:07:14;96521.59;;;-2.83;53.43
77871;BME280;67067;46.850;7.578;2023-02-15T03:08:25;96522.53;;;-2.84;53.33
77871;BME280;67067;46.850;7.578;2023-02-15T03:10:41;96517.06;;;-2.91;53.36
77871;BME280;67067;46.850;7.578;2023-02-15T03:11:43;96512.72;;;-2.91;53.42
77871;BME280;67067;46.850;7.578;2023-02-15T03:12:45;96515.16;;;-2.89;53.62
77871;BME280;67067;46.850;7.578;2023-02-15T03:13:48;96518.44;;;-2.87;53.61
77871;BME280;67067;46.850;7.578;2023-02-15T03:14:54;96520.06;;;-2.86;53.45
77871;BME280;67067;46.850;7.578;2023-02-15T03:15:57;96528.69;;;-2.86;53.36
77871;BME280;67067;46.850;7.578;2023-02-15T03:17:20;96520.63;;;-2.92;53.35
77871;BME280;67067;46.850;7.578;2023-02-15T03:18:25;96523.34;;;-2.94;53.39
77871;BME280;67067;46.850;7.578;2023-02-15T03:19:31;96518.19;;;-2.94;53.34
77871;BME280;67067;46.850;7.578;2023-02-15T03:20:35;96516.38;;;-2.93;53.53
77871;BME280;67067;46.850;7.578;2023-02-15T03:21:44;96519.94;;;-2.94;53.51
77871;BME280;67067;46.850;7.578;2023-02-15T03:23:04;96516.94;;;-2.90;53.72
77871;BME280;67067;46.850;7.578;2023-02-15T03:24:12;96518.59;;;-2.89;53.95
77871;BME280;67067;46.850;7.578;2023-02-15T03:25:20;96515.72;;;-2.86;53.77
77871;BME280;67067;46.850;7.578;2023-02-15T03:26:24;96513.81;;;-2.83;53.80
77871;BME280;67067;46.850;7.578;2023-02-15T03:27:33;96521.31;;;-2.80;53.55
77871;BME280;67067;46.850;7.578;2023-02-15T03:28:40;96521.47;;;-2.82;53.58
77871;BME280;67067;46.850;7.578;2023-02-15T03:29:45;96516.41;;;-2.83;53.67
77871;BME280;67067;46.850;7.578;2023-02-15T03:30:51;96519.28;;;-2.87;53.39
77871;BME280;67067;46.850;7.578;2023-02-15T03:31:58;96520.22;;;-2.88;53.48
77871;BME280;67067;46.850;7.578;2023-02-15T03:33:02;96518.59;;;-2.89;53.46
77871;BME280;67067;46.850;7.578;2023-02-15T03:34:07;96518.97;;;-2.93;53.61
77871;BME280;67067;46.850;7.578;2023-02-15T03:35:12;96511.34;;;-2.95;53.61
77871;BME280;67067;46.850;7.578;2023-02-15T03:36:31;96516.81;;;-2.98;53.74
77871;BME280;67067;46.850;7.578;2023-02-15T03:38:47;96515.84;;;-2.97;53.95
77871;BME280;67067;46.850;7.578;2023-02-15T03:39:54;96516.53;;;-2.95;53.92
77871;BME280;67067;46.850;7.578;2023-02-15T03:40:59;96522.25;;;-2.91;54.16
77871;BME280;67067;46.850;7.578;2023-02-15T03:42:11;96519.53;;;-2.90;54.13
77871;BME280;67067;46.850;7.578;2023-02-15T03:44:32;96519.28;;;-2.87;54.45
77871;BME280;67067;46.850;7.578;2023-02-15T03:45:38;96514.50;;;-2.81;54.16
77871;BME280;67067;46.850;7.578;2023-02-15T03:47:05;96511.63;;;-2.78;53.89
77871;BME280;67067;46.850;7.578;2023-02-15T03:48:08;96516.56;;;-2.75;53.87
77871;BME280;67067;46.850;7.578;2023-02-15T03:49:13;96503.47;;;-2.74;53.84
77871;BME280;67067;46.850;7.578;2023-02-15T03:50:24;96508.50;;;-2.72;53.77
77871;BME280;67067;46.850;7.578;2023-02-15T03:51:47;96506.75;;;-2.72;53.61
77871;BME280;67067;46.850;7.578;2023-02-15T03:52:48;96506.59;;;-2.70;53.51
77871;BME280;67067;46.850;7.578;2023-02-15T03:53:50;96510.81;;;-2.69;53.50
77871;BME280;67067;46.850;7.578;2023-02-15T03:54:54;96520.91;;;-2.66;53.53
77871;BME280;67067;46.850;7.578;2023-02-15T03:55:57;96520.25;;;-2.68;53.40
77871;BME280;67067;46.850;7.578;2023-02-15T03:56:58;96519.81;;;-2.73;53.28
77871;BME280;67067;46.850;7.578;2023-02-15T03:58:16;96523.13;;;-2.81;53.26
77871;BME280;67067;46.850;7.578;2023-02-15T03:59:36;96524.47;;;-2.87;53.21
77871;BME280;67067;46.850;7.578;2023-02-15T04:00:58;96521.72;;;-2.95;53.37
77871;BME280;67067;46.850;7.578;2023-02-15T04:02:23;96520.47;;;-3.01;53.31
77871;BME280;67067;46.850;7.578;2023-02-15T04:03:36;96530.84;;;-3.01;53.28
77871;BME280;67067;46.850;7.578;2023-02-15T04:04:45;96527.56;;;-3.03;53.41
77871;BME280;67067;46.850;7.578;2023-02-15T04:05:46;96528.41;;;-3.02;53.48
77871;BME280;67067;46.850;7.578;2023-02-15T04:06:47;96526.59;;;-3.02;53.32
77871;BME280;67067;46.850;7.578;2023-02-15T04:07:50;96526.59;;;-3.02;53.36
77871;BME280;67067;46.850;7.578;2023-02-15T04:08:50;96520.63;;;-3.02;53.44
77871;BME280;67067;46.850;7.578;2023-02-15T04:10:09;96516.41;;;-3.03;53.38
77871;BME280;67067;46.850;7.578;2023-02-15T04:11:30;96520.06;;;-3.06;53.28
77871;BME280;67067;46.850;7.578;2023-02-15T04:12:30;96521.69;;;-3.05;53.44
77871;BME280;67067;46.850;7.578;2023-02-15T04:13:34;96524.28;;;-3.05;53.39
77871;BME280;67067;46.850;7.578;2023-02-15T04:14:34;96516.41;;;-3.03;53.31
77871;BME280;67067;46.850;7.578;2023-02-15T04:15:54;96515.56;;;-3.04;53.48
77871;BME280;67067;46.850;7.578;2023-02-15T04:17:07;96518.16;;;-3.04;53.58
77871;BME280;67067;46.850;7.578;2023-02-15T04:18:08;96516.25;;;-3.11;53.70
77871;BME280;67067;46.850;7.578;2023-02-15T04:19:08;96521.69;;;-3.05;53.72
77871;BME280;67067;46.850;7.578;2023-02-15T04:20:28;96510.38;;;-3.04;53.75
77871;BME280;67067;46.850;7.578;2023-02-15T04:21:47;96516.25;;;-3.02;53.73
77871;BME280;67067;46.850;7.578;2023-02-15T04:23:08;96517.88;;;-3.01;53.77
77871;BME280;67067;46.850;7.578;2023-02-15T04:24:30;96514.50;;;-3.01;53.68
77871;BME280;67067;46.850;7.578;2023-02-15T04:25:49;96510.09;;;-3.01;53.54
77871;BME280;67067;46.850;7.578;2023-02-15T04:26:49;96519.66;;;-3.01;53.38
77871;BME280;67067;46.850;7.578;2023-02-15T04:27:54;96515.44;;;-3.02;53.38
77871;BME280;67067;46.850;7.578;2023-02-15T04:28:54;96512.81;;;-3.12;53.56
77871;BME280;67067;46.850;7.578;2023-02-15T04:29:55;96509.84;;;-3.07;53.49
77871;BME280;67067;46.850;7.578;2023-02-15T04:30:55;96512.44;;;-3.07;53.43
77871;BME280;67067;46.850;7.578;2023-02-15T04:32:00;96508.06;;;-3.07;53.58
77871;BME280;67067;46.850;7.578;2023-02-15T04:33:01;96506.03;;;-3.03;53.39
77871;BME280;67067;46.850;7.578;2023-02-15T04:34:02;96513.53;;;-3.00;53.42
77871;BME280;67067;46.850;7.578;2023-02-15T04:35:06;96508.47;;;-3.02;53.35
77871;BME280;67067;46.850;7.578;2023-02-15T04:36:07;96515.44;;;-3.02;53.18
77871;BME280;67067;46.850;7.578;2023-02-15T04:37:07;96508.88;;;-3.06;53.27
77871;BME280;67067;46.850;7.578;2023-02-15T04:38:08;96508.31;;;-3.10;53.18
77871;BME280;67067;46.850;7.578;2023-02-15T04:39:09;96503.28;;;-3.11;53.22
77871;BME280;67067;46.850;7.578;2023-02-15T04:40:11;96510.38;;;-3.13;53.27
77871;BME280;67067;46.850;7.578;2023-02-15T04:41:12;96510.38;;;-3.13;53.08
77871;BME280;67067;46.850;7.578;2023-02-15T04:42:13;96514.88;;;-3.16;53.24
77871;BME280;67067;46.850;7.578;2023-02-15T04:43:17;96514.03;;;-3.16;53.09
77871;BME280;67067;46.850;7.578;2023-02-15T04:44:17;96509.13;;;-3.19;53.16
77871;BME280;67067;46.850;7.578;2023-02-15T04:45:20;96515.38;;;-3.22;53.07
77871;BME280;67067;46.850;7.578;2023-02-15T04:46:21;96513.31;;;-3.28;53.30
77871;BME280;67067;46.850;7.578;2023-02-15T04:47:22;96510.03;;;-3.30;53.28
77871;BME280;67067;46.850;7.578;2023-02-15T04:48:23;96512.63;;;-3.30;53.28
77871;BME280;67067;46.850;7.578;2023-02-15T04:49:23;96514.81;;;-3.35;53.34
77871;BME280;67067;46.850;7.578;2023-02-15T04:50:24;96509.88;;;-3.38;53.37
77871;BME280;67067;46.850;7.578;2023-02-15T04:51:24;96516.16;;;-3.41;53.43
77871;BME280;67067;46.850;7.578;2023-02-15T04:52:24;96516.28;;;-3.42;53.55
77871;BME280;67067;46.850;7.578;2023-02-15T04:53:28;96504.16;;;-3.42;53.67
77871;BME280;67067;46.850;7.578;2023-02-15T04:54:28;96508.78;;;-3.46;53.68
77871;BME280;67067;46.850;7.578;2023-02-15T04:55:30;96505.13;;;-3.43;53.74
77871;BME280;67067;46.850;7.578;2023-02-15T04:56:31;96506.19;;;-3.46;53.72
77871;BME280;67067;46.850;7.578;2023-02-15T04:57:35;96512.19;;;-3.45;53.78
77871;BME280;67067;46.850;7.578;2023-02-15T04:58:38;96510.41;;;-3.45;53.79
77871;BME280;67067;46.850;7.578;2023-02-15T04:59:41;96514.78;;;-3.45;54.02
77871;BME280;67067;46.850;7.578;2023-02-15T05:00:41;96515.59;;;-3.45;54.15
77871;BME280;67067;46.850;7.578;2023-02-15T05:01:42;96507.81;;;-3.45;54.03
77871;BME280;67067;46.850;7.578;2023-02-15T05:02:42;96511.09;;;-3.42;54.20
77871;BME280;67067;46.850;7.578;2023-02-15T05:03:43;96505.94;;;-3.42;54.17
77871;BME280;67067;46.850;7.578;2023-02-15T05:04:46;96500.47;;;-3.39;54.08
77871;BME280;67067;46.850;7.578;2023-02-15T05:05:46;96499.53;;;-3.38;54.09
77871;BME280;67067;46.850;7.578;2023-02-15T05:06:49;96498.56;;;-3.37;53.88
77871;BME280;67067;46.850;7.578;2023-02-15T05:07:49;96503.75;;;-3.37;53.97
77871;BME280;67067;46.850;7.578;2023-02-15T05:08:52;96494.34;;;-3.38;53.93
77871;BME280;67067;46.850;7.578;2023-02-15T05:09:53;96504.44;;;-3.35;53.99
77871;BME280;67067;46.850;7.578;2023-02-15T05:10:55;96495.03;;;-3.36;53.91
77871;BME280;67067;46.850;7.578;2023-02-15T05:11:56;96493.28;;;-3.36;54.08
77871;BME280;67067;46.850;7.578;2023-02-15T05:12:59;96502.69;;;-3.35;53.78
77871;BME280;67067;46.850;7.578;2023-02-15T05:13:59;96501.16;;;-3.37;53.80
77871;BME280;67067;46.850;7.578;2023-02-15T05:15:00;96506.34;;;-3.37;53.69
77871;BME280;67067;46.850;7.578;2023-02-15T05:16:00;96496.53;;;-3.44;53.73
77871;BME280;67067;46.850;7.578;2023-02-15T05:17:01;96496.25;;;-3.40;53.70
77871;BME280;67067;46.850;7.578;2023-02-15T05:18:03;96501.44;;;-3.40;53.86
77871;BME280;67067;46.850;7.578;2023-02-15T05:19:04;96497.19;;;-3.41;53.80
77871;BME280;67067;46.850;7.578;2023-02-15T05:20:04;96498.84;;;-3.40;53.87
77871;BME280;67067;46.850;7.578;2023-02-15T05:21:05;96499.78;;;-3.41;53.92
77871;BME280;67067;46.850;7.578;2023-02-15T05:22:08;96497.19;;;-3.41;53.83
77871;BME280;67067;46.850;7.578;2023-02-15T05:23:09;96499.78;;;-3.41;53.74
77871;BME280;67067;46.850;7.578;2023-02-15T05:24:09;96498.84;;;-3.40;53.78
77871;BME280;67067;46.850;7.578;2023-02-15T05:25:28;96497.19;;;-3.41;53.67
77871;BME280;67067;46.850;7.578;2023-02-15T05:26:49;96498.16;;;-3.42;53.83
77871;BME280;67067;46.850;7.578;2023-02-15T05:28:11;96507.03;;;-3.45;53.92
77871;BME280;67067;46.850;7.578;2023-02-15T05:29:20;96504.56;;;-3.47;53.82
77871;BME280;67067;46.850;7.578;2023-02-15T05:30:21;96498.69;;;-3.49;53.95
77871;BME280;67067;46.850;7.578;2023-02-15T05:33:20;96505.88;;;-3.52;53.84
77871;BME280;67067;46.850;7.578;2023-02-15T05:34:20;96496.47;;;-3.53;53.93
77871;BME280;67067;46.850;7.578;2023-02-15T05:35:21;96505.88;;;-3.52;53.79
77871;BME280;67067;46.850;7.578;2023-02-15T05:36:24;96502.50;;;-3.53;53.60
77871;BME280;67067;46.850;7.578;2023-02-15T05:37:24;96505.19;;;-3.54;53.74
77871;BME280;67067;46.850;7.578;2023-02-15T05:38:25;96511.47;;;-3.57;53.74
77871;BME280;67067;46.850;7.578;2023-02-15T05:39:25;96502.06;;;-3.58;53.83
77871;BME280;67067;46.850;7.578;2023-02-15T05:40:26;96510.50;;;-3.56;53.79
77871;BME280;67067;46.850;7.578;2023-02-15T05:41:27;96516.66;;;-3.57;53.77
77871;BME280;67067;46.850;7.578;2023-02-15T05:42:27;96512.97;;;-3.54;53.77
77871;BME280;67067;46.850;7.578;2023-02-15T05:43:28;96507.66;;;-3.53;53.75
77871;BME280;67067;46.850;7.578;2023-02-15T05:44:29;96512.00;;;-3.53;53.84
77871;BME280;67067;46.850;7.578;2023-02-15T05:45:32;96513.66;;;-3.52;53.63
77871;BME280;67067;46.850;7.578;2023-02-15T05:46:32;96512.84;;;-3.53;53.85
77871;BME280;67067;46.850;7.578;2023-02-15T05:47:33;96517.06;;;-3.52;53.88
77871;BME280;67067;46.850;7.578;2023-02-15T05:48:34;96516.13;;;-3.51;53.71
77871;BME280;67067;46.850;7.578;2023-02-15T05:49:35;96513.41;;;-3.49;53.71
77871;BME280;67067;46.850;7.578;2023-02-15T05:50:36;96519.28;;;-3.47;53.76
77871;BME280;67067;46.850;7.578;2023-02-15T05:51:36;96519.13;;;-3.46;53.74
77871;BME280;67067;46.850;7.578;2023-02-15T05:52:37;96512.31;;;-3.47;53.75
77871;BME280;67067;46.850;7.578;2023-02-15T05:53:38;96521.59;;;-3.44;53.83
77871;BME280;67067;46.850;7.578;2023-02-15T05:54:38;96521.59;;;-3.44;53.59
77871;BME280;67067;46.850;7.578;2023-02-15T05:55:40;96520.50;;;-3.41;53.77
77871;BME280;67067;46.850;7.578;2023-02-15T05:56:40;96520.50;;;-3.51;53.82
77871;BME280;67067;46.850;7.578;2023-02-15T05:57:43;96523.50;;;-3.46;53.83
77871;BME280;67067;46.850;7.578;2023-02-15T05:58:43;96526.09;;;-3.46;53.83
77871;BME280;67067;46.850;7.578;2023-02-15T05:59:44;96521.72;;;-3.46;53.82
77871;BME280;67067;46.850;7.578;2023-02-15T06:00:44;96518.34;;;-3.46;53.50
77871;BME280;67067;46.850;7.578;2023-02-15T06:01:45;96517.63;;;-3.48;53.61
77871;BME280;67067;46.850;7.578;2023-02-15T06:02:45;96522.94;;;-3.50;53.65
77871;BME280;67067;46.850;7.578;2023-02-15T06:03:46;96519.09;;;-3.55;53.63
77871;BME280;67067;46.850;7.578;2023-02-15T06:04:49;96521.00;;;-3.58;53.40
77871;BME280;67067;46.850;7.578;2023-02-15T06:05:49;96521.41;;;-3.62;53.37